Time;durP1;ratioP1;P1;durP2;ratioP2;P2;SDS_P1;SDS_P2;PMS_P1;PMS_P2;Temp;Humidity;BMP_temperature;BMP_pressure;BME280_temperature;BME280_humidity;BME280_pressure;Samples;Min_cycle;Max_cycle;Signal;HPM_P1;HPM_P2
2023/11/12 00:01:45;;;;;;;12.63;4.57;;;;;;;;;;5001138;28;20019;-77
2023/11/12 00:04:11;;;;;;;12.50;4.90;;;;;;;;;;4999835;28;20023;-78
2023/11/12 00:06:40;;;;;;;7.80;4.87;;;;;;;;;;5001229;28;20042;-83
2023/11/12 00:09:09;;;;;;;7.30;4.10;;;;;;;;;;5000447;28;20086;-78
2023/11/12 00:11:40;;;;;;;6.80;4.67;;;;;;;;;;5001054;28;20029;-78
2023/11/12 00:14:09;;;;;;;8.30;4.93;;;;;;;;;;5001130;28;20022;-80
2023/11/12 00:16:42;;;;;;;8.00;4.80;;;;;;;;;;5000921;28;20022;-77
2023/11/12 00:19:12;;;;;;;10.73;5.67;;;;;;;;;;4997202;28;20033;-78
2023/11/12 00:21:38;;;;;;;8.80;5.17;;;;;;;;;;5009097;28;20046;-77
2023/11/12 00:24:05;;;;;;;8.37;4.70;;;;;;;;;;4995934;28;20031;-77
2023/11/12 00:26:33;;;;;;;7.37;4.67;;;;;;;;;;4990125;28;20021;-77
2023/11/12 00:29:01;;;;;;;7.33;4.50;;;;;;;;;;4995542;28;20042;-78
2023/11/12 00:31:36;;;;;;;7.17;4.60;;;;;;;;;;4996205;28;20037;-77
2023/11/12 00:34:07;;;;;;;9.20;5.20;;;;;;;;;;4995676;28;20212;-77
2023/11/12 00:36:33;;;;;;;8.73;5.70;;;;;;;;;;4995648;28;20023;-77
2023/11/12 00:38:59;;;;;;;10.50;5.80;;;;;;;;;;4996877;28;20035;-78
2023/11/12 00:41:25;;;;;;;9.53;6.40;;;;;;;;;;5001451;28;20022;-77
2023/11/12 00:43:51;;;;;;;10.60;6.37;;;;;;;;;;5001243;28;20031;-77
2023/11/12 00:46:20;;;;;;;13.77;7.67;;;;;;;;;;5003079;28;20030;-78
2023/11/12 00:48:46;;;;;;;13.23;8.37;;;;;;;;;;5000041;28;20030;-80
2023/11/12 00:51:17;;;;;;;16.30;9.00;;;;;;;;;;5014717;28;20098;-78
2023/11/12 00:53:46;;;;;;;13.73;8.20;;;;;;;;;;4998054;28;20018;-78
2023/11/12 00:56:17;;;;;;;12.13;8.53;;;;;;;;;;4995879;28;20011;-81
2023/11/12 00:58:43;;;;;;;17.37;8.13;;;;;;;;;;4997084;28;20125;-82
2023/11/12 01:01:22;;;;;;;;;;;;;;;;;;;;;
2023/11/12 01:03:48;;;;;;;12.70;7.53;;;;;;;;;;4991796;28;20132;-82
2023/11/12 01:06:15;;;;;;;12.37;7.47;;;;;;;;;;4990636;28;20127;-83
2023/11/12 01:08:45;;;;;;;14.97;6.40;;;;;;;;;;4991245;28;20027;-84
2023/11/12 01:11:11;;;;;;;11.33;6.33;;;;;;;;;;4988422;28;20034;-89
2023/11/12 01:13:38;;;;;;;10.57;6.13;;;;;;;;;;4987258;28;20323;-85
2023/11/12 01:16:09;;;;;;;11.93;6.23;;;;;;;;;;4987237;28;20198;-87
2023/11/12 01:18:43;;;;;;;12.90;6.38;;;;;;;;;;4987580;28;20041;-84
2023/11/12 01:21:11;;;;;;;11.00;5.97;;;;;;;;;;4979880;28;20098;-85
2023/11/12 01:23:37;;;;;;;11.40;6.27;;;;;;;;;;4984964;28;20034;-87
2023/11/12 01:26:08;;;;;;;11.50;6.43;;;;;;;;;;4984179;28;20033;-86
2023/11/12 01:28:45;;;;;;;13.37;6.20;;;;;;;;;;4978675;28;20054;-86
2023/11/12 01:31:13;;;;;;;9.47;5.50;;;;;;;;;;4977583;28;20025;-84
2023/11/12 01:33:42;;;;;;;9.13;5.03;;;;;;;;;;4980501;28;20043;-82
2023/11/12 01:36:18;;;;;;;10.13;5.53;;;;;;;;;;4982513;28;20027;-90
2023/11/12 01:38:44;;;;;;;9.17;5.67;;;;;;;;;;4982087;28;20084;-89
2023/11/12 01:41:13;;;;;;;11.67;5.80;;;;;;;;;;4979974;28;20038;-84
2023/11/12 01:43:39;;;;;;;10.57;5.90;;;;;;;;;;4979586;28;20053;-88
2023/11/12 01:46:05;;;;;;;10.63;6.27;;;;;;;;;;4981594;28;20089;-88
2023/11/12 01:48:32;;;;;;;8.87;6.50;;;;;;;;;;4978233;28;20038;-84
2023/11/12 01:51:04;;;;;;;9.97;5.83;;;;;;;;;;4998743;28;20098;-86
2023/11/12 01:53:37;;;;;;;7.38;4.15;;;;;;;;;;4978879;28;20046;-88
2023/11/12 01:56:08;;;;;;;8.93;5.30;;;;;;;;;;4992534;28;20059;-86
2023/11/12 01:58:34;;;;;;;9.27;5.27;;;;;;;;;;4981675;28;20046;-86
2023/11/12 02:01:01;;;;;;;11.37;5.33;;;;;;;;;;4978100;28;20043;-88
2023/11/12 02:03:27;;;;;;;17.43;5.97;;;;;;;;;;4982277;28;20042;-88
2023/11/12 02:05:53;;;;;;;9.53;5.43;;;;;;;;;;4981061;28;20047;-85
2023/11/12 02:08:21;;;;;;;11.13;5.20;;;;;;;;;;4982842;28;20041;-89
2023/11/12 02:10:48;;;;;;;13.07;6.43;;;;;;;;;;4984873;28;20038;-88
2023/11/12 02:13:14;;;;;;;7.53;4.93;;;;;;;;;;4984449;28;20038;-87
2023/11/12 02:15:41;;;;;;;8.57;5.83;;;;;;;;;;4984778;28;20035;-86
2023/11/12 02:18:07;;;;;;;9.70;5.10;;;;;;;;;;5001830;28;20035;-87
2023/11/12 02:20:33;;;;;;;7.70;5.00;;;;;;;;;;4986368;28;20031;-87
2023/11/12 02:22:59;;;;;;;9.27;5.40;;;;;;;;;;5001562;28;20230;-84
2023/11/12 02:25:30;;;;;;;8.43;5.47;;;;;;;;;;5002944;28;20088;-88
2023/11/12 02:27:56;;;;;;;10.50;5.37;;;;;;;;;;4984411;28;20030;-86
2023/11/12 02:30:23;;;;;;;10.20;6.63;;;;;;;;;;4985128;28;20038;-86
2023/11/12 02:32:50;;;;;;;17.57;7.70;;;;;;;;;;4987604;28;20035;-87
2023/11/12 02:35:16;;;;;;;10.10;6.53;;;;;;;;;;4979058;28;20043;-86
2023/11/12 02:37:42;;;;;;;12.03;6.70;;;;;;;;;;4978924;28;20039;-85
2023/11/12 02:40:08;;;;;;;11.03;5.63;;;;;;;;;;4985557;28;20057;-87
2023/11/12 02:42:37;;;;;;;9.40;5.57;;;;;;;;;;4994852;28;20051;-86
2023/11/12 02:45:03;;;;;;;8.17;5.80;;;;;;;;;;4979526;28;20038;-86
2023/11/12 02:47:30;;;;;;;14.87;6.17;;;;;;;;;;4992464;28;20058;-84
2023/11/12 02:50:20;;;;;;;9.67;6.63;;;;;;;;;;4990551;28;20031;-88
2023/11/12 02:52:48;;;;;;;11.80;6.50;;;;;;;;;;4994143;28;20062;-85
2023/11/12 02:55:17;;;;;;;10.70;6.47;;;;;;;;;;4980867;28;20031;-86
2023/11/12 02:57:46;;;;;;;12.23;6.27;;;;;;;;;;4993106;28;20035;-83
2023/11/12 03:00:16;;;;;;;8.40;5.47;;;;;;;;;;4981139;28;20041;-83
2023/11/12 03:02:45;;;;;;;11.77;6.77;;;;;;;;;;4979821;28;20031;-88
2023/11/12 03:05:12;;;;;;;12.93;6.97;;;;;;;;;;4993796;28;20039;-86
2023/11/12 03:07:40;;;;;;;11.73;7.03;;;;;;;;;;4980340;28;20015;-88
2023/11/12 03:10:10;;;;;;;12.07;5.97;;;;;;;;;;4977291;28;20027;-85
2023/11/12 03:12:38;;;;;;;15.47;7.17;;;;;;;;;;4993278;28;20054;-87
2023/11/12 03:15:08;;;;;;;18.93;7.13;;;;;;;;;;4977056;28;20072;-85
2023/11/12 03:17:35;;;;;;;10.07;6.30;;;;;;;;;;4973928;28;20041;-85
2023/11/12 03:20:04;;;;;;;12.13;6.90;;;;;;;;;;4978863;28;20151;-85
2023/11/12 03:22:36;;;;;;;10.07;6.57;;;;;;;;;;4993949;28;20055;-88
2023/11/12 03:25:10;;;;;;;11.50;6.72;;;;;;;;;;4991969;28;20054;-85
2023/11/12 03:27:39;;;;;;;14.93;7.80;;;;;;;;;;4982973;28;20035;-84
2023/11/12 03:30:08;;;;;;;18.27;7.83;;;;;;;;;;4984073;28;20022;-84
2023/11/12 03:32:37;;;;;;;11.27;7.23;;;;;;;;;;4975258;28;20030;-87
2023/11/12 03:35:06;;;;;;;11.63;7.33;;;;;;;;;;4982621;28;20034;-86
2023/11/12 03:37:35;;;;;;;17.97;8.03;;;;;;;;;;4973583;28;20046;-83
2023/11/12 03:40:01;;;;;;;11.93;6.90;;;;;;;;;;4994042;28;20086;-86
2023/11/12 03:42:34;;;;;;;13.53;7.40;;;;;;;;;;4980443;28;20035;-86
2023/11/12 03:45:03;;;;;;;11.23;7.07;;;;;;;;;;4980360;28;20037;-87
2023/11/12 03:47:29;;;;;;;11.60;6.77;;;;;;;;;;4992140;28;20653;-88
2023/11/12 03:49:55;;;;;;;10.90;7.33;;;;;;;;;;4994662;28;20050;-88
2023/11/12 03:52:21;;;;;;;11.73;7.20;;;;;;;;;;4988454;28;20065;-88
2023/11/12 03:54:48;;;;;;;13.07;7.30;;;;;;;;;;4978590;28;20090;-86
2023/11/12 03:57:14;;;;;;;13.57;7.37;;;;;;;;;;4978134;28;20106;-86
2023/11/12 03:59:51;;;;;;;11.90;7.30;;;;;;;;;;4974366;28;20058;-84
2023/11/12 04:02:17;;;;;;;11.60;8.17;;;;;;;;;;4978124;28;20038;-86
2023/11/12 04:04:43;;;;;;;12.80;7.57;;;;;;;;;;4977974;28;20046;-88
2023/11/12 04:07:09;;;;;;;14.67;7.87;;;;;;;;;;4976044;28;20045;-87
2023/11/12 04:09:35;;;;;;;10.73;7.50;;;;;;;;;;4988342;28;20053;-86
2023/11/12 04:12:02;;;;;;;13.50;7.17;;;;;;;;;;4978628;28;20037;-87
2023/11/12 04:14:28;;;;;;;9.57;6.50;;;;;;;;;;4976158;28;20073;-85
2023/11/12 04:16:54;;;;;;;13.83;7.67;;;;;;;;;;4990382;28;20031;-86
2023/11/12 04:19:20;;;;;;;10.33;6.90;;;;;;;;;;4970911;28;20067;-85
2023/11/12 04:21:54;;;;;;;13.77;7.77;;;;;;;;;;4972983;28;20035;-80
2023/11/12 04:24:20;;;;;;;12.23;8.40;;;;;;;;;;4972510;28;20035;-86
2023/11/12 04:26:48;;;;;;;11.10;7.80;;;;;;;;;;4971623;28;20033;-84
2023/11/12 04:29:14;;;;;;;15.90;8.03;;;;;;;;;;4974066;28;20034;-88
2023/11/12 04:31:40;;;;;;;12.43;6.77;;;;;;;;;;4978258;28;20042;-88
2023/11/12 04:34:07;;;;;;;17.33;8.30;;;;;;;;;;4975260;28;20051;-87
2023/11/12 04:36:35;;;;;;;11.23;7.63;;;;;;;;;;4991876;28;20480;-84
2023/11/12 04:39:02;;;;;;;13.30;7.73;;;;;;;;;;4976077;28;20832;-85
2023/11/12 04:41:30;;;;;;;16.10;8.20;;;;;;;;;;4978300;28;20115;-88
2023/11/12 04:43:56;;;;;;;12.10;7.03;;;;;;;;;;5001433;28;20042;-89
2023/11/12 04:46:22;;;;;;;12.67;7.60;;;;;;;;;;4978412;28;20042;-88
2023/11/12 04:48:53;;;;;;;12.53;6.83;;;;;;;;;;4982498;28;20041;-88
2023/11/12 04:51:19;;;;;;;9.63;6.60;;;;;;;;;;4981341;28;20431;-87
2023/11/12 04:53:46;;;;;;;10.83;6.43;;;;;;;;;;4982037;28;20031;-90
2023/11/12 04:56:12;;;;;;;10.70;6.90;;;;;;;;;;4981974;28;20065;-86
2023/11/12 04:58:38;;;;;;;11.87;7.50;;;;;;;;;;4975788;28;20345;-90
2023/11/12 05:01:06;;;;;;;12.87;7.73;;;;;;;;;;4982556;28;20367;-89
2023/11/12 05:03:32;;;;;;;10.47;6.93;;;;;;;;;;4984262;28;20027;-87
2023/11/12 05:06:01;;;;;;;9.73;6.60;;;;;;;;;;4984675;28;20391;-89
2023/11/12 05:08:28;;;;;;;10.63;6.60;;;;;;;;;;4985320;28;20031;-89
2023/11/12 05:10:54;;;;;;;14.17;7.97;;;;;;;;;;4984120;28;20114;-89
2023/11/12 05:13:20;;;;;;;11.70;6.93;;;;;;;;;;4986544;28;20038;-89
2023/11/12 05:15:46;;;;;;;10.50;8.03;;;;;;;;;;4985681;28;20023;-89
2023/11/12 05:18:12;;;;;;;12.97;8.37;;;;;;;;;;4987984;28;20041;-87
2023/11/12 05:20:38;;;;;;;14.00;7.70;;;;;;;;;;4988248;28;20105;-91
2023/11/12 05:23:04;;;;;;;14.80;7.40;;;;;;;;;;4989109;28;20062;-90
2023/11/12 05:25:31;;;;;;;13.57;7.73;;;;;;;;;;4986201;28;20038;-89
2023/11/12 05:27:57;;;;;;;12.40;7.13;;;;;;;;;;4989186;28;20035;-89
2023/11/12 05:30:23;;;;;;;12.87;8.20;;;;;;;;;;4988171;28;20100;-85
2023/11/12 05:32:49;;;;;;;12.60;7.50;;;;;;;;;;4989293;28;20129;-88
2023/11/12 05:35:15;;;;;;;14.23;6.93;;;;;;;;;;4989995;28;20019;-88
2023/11/12 05:37:42;;;;;;;15.27;7.47;;;;;;;;;;4989114;28;20479;-91
2023/11/12 05:40:08;;;;;;;12.17;6.07;;;;;;;;;;4988868;28;20065;-86
2023/11/12 05:42:34;;;;;;;11.07;6.80;;;;;;;;;;4989123;28;20047;-90
2023/11/12 05:45:00;;;;;;;12.17;6.63;;;;;;;;;;4980023;28;20070;-88
2023/11/12 05:47:26;;;;;;;11.30;6.30;;;;;;;;;;4993777;28;20022;-86
2023/11/12 05:49:52;;;;;;;15.10;7.67;;;;;;;;;;4989326;28;20031;-89
2023/11/12 05:52:18;;;;;;;9.77;6.07;;;;;;;;;;4988640;28;20090;-89
2023/11/12 05:54:44;;;;;;;10.60;5.93;;;;;;;;;;4988141;28;20027;-88
2023/11/12 05:57:10;;;;;;;13.10;6.43;;;;;;;;;;4987466;28;20042;-86
2023/11/12 05:59:36;;;;;;;9.00;5.93;;;;;;;;;;4987409;28;20034;-90
2023/11/12 06:02:02;;;;;;;8.57;5.73;;;;;;;;;;4987899;28;20037;-89
2023/11/12 06:04:28;;;;;;;14.63;6.53;;;;;;;;;;4986642;28;20447;-88
2023/11/12 06:06:54;;;;;;;10.13;6.67;;;;;;;;;;4987339;28;20034;-90
2023/11/12 06:09:21;;;;;;;12.60;7.63;;;;;;;;;;4968293;28;20127;-87
2023/11/12 06:11:47;;;;;;;11.27;7.37;;;;;;;;;;4972219;28;20038;-89
2023/11/12 06:14:13;;;;;;;9.57;6.27;;;;;;;;;;4984328;28;20029;-88
2023/11/12 06:16:39;;;;;;;17.07;6.10;;;;;;;;;;4982337;28;20221;-85
2023/11/12 06:19:05;;;;;;;14.60;7.23;;;;;;;;;;4980060;28;20126;-88
2023/11/12 06:21:32;;;;;;;12.67;6.97;;;;;;;;;;4976670;28;20073;-87
2023/11/12 06:23:58;;;;;;;9.43;6.00;;;;;;;;;;4969742;28;20039;-86
2023/11/12 06:26:24;;;;;;;10.77;6.27;;;;;;;;;;4972175;28;20037;-86
2023/11/12 06:28:53;;;;;;;12.47;6.27;;;;;;;;;;4979591;28;20136;-86
2023/11/12 06:31:19;;;;;;;9.80;6.33;;;;;;;;;;4977640;28;20451;-84
2023/11/12 06:33:45;;;;;;;9.67;6.67;;;;;;;;;;4973340;28;20066;-87
2023/11/12 06:36:13;;;;;;;12.70;6.70;;;;;;;;;;4975125;28;20027;-87
2023/11/12 06:38:42;;;;;;;9.27;5.80;;;;;;;;;;4973599;28;20348;-85
2023/11/12 06:41:09;;;;;;;13.60;6.10;;;;;;;;;;4979635;28;20062;-88
2023/11/12 06:43:36;;;;;;;9.53;6.47;;;;;;;;;;4978779;28;20066;-88
2023/11/12 06:46:02;;;;;;;12.73;6.27;;;;;;;;;;4991821;28;20069;-87
2023/11/12 06:48:28;;;;;;;10.63;5.83;;;;;;;;;;4979918;28;20034;-88
2023/11/12 06:50:54;;;;;;;11.03;6.37;;;;;;;;;;4983681;28;20060;-87
2023/11/12 06:53:22;;;;;;;9.53;6.13;;;;;;;;;;4983083;28;20034;-84
2023/11/12 06:55:48;;;;;;;11.90;6.50;;;;;;;;;;4982001;28;20030;-87
2023/11/12 06:58:14;;;;;;;10.87;7.37;;;;;;;;;;4978727;28;20181;-84
2023/11/12 07:00:41;;;;;;;9.83;6.23;;;;;;;;;;4988438;28;20053;-88
2023/11/12 07:03:07;;;;;;;13.53;6.57;;;;;;;;;;4985999;28;20026;-87
2023/11/12 07:05:33;;;;;;;10.03;6.37;;;;;;;;;;4983731;28;20034;-88
2023/11/12 07:07:59;;;;;;;13.43;6.50;;;;;;;;;;4984174;28;20033;-86
2023/11/12 07:10:25;;;;;;;9.60;5.77;;;;;;;;;;4984609;28;20050;-86
2023/11/12 07:12:51;;;;;;;12.70;6.47;;;;;;;;;;4984606;28;20112;-86
2023/11/12 07:15:17;;;;;;;10.37;6.03;;;;;;;;;;4980086;28;20038;-85
2023/11/12 07:17:47;;;;;;;10.30;6.63;;;;;;;;;;4983732;28;20054;-84
2023/11/12 07:20:13;;;;;;;13.97;6.97;;;;;;;;;;4977836;28;20022;-88
2023/11/12 07:22:39;;;;;;;11.57;6.87;;;;;;;;;;4984180;28;20053;-87
2023/11/12 07:25:06;;;;;;;24.70;8.13;;;;;;;;;;4986725;28;20359;-87
2023/11/12 07:27:32;;;;;;;10.97;6.20;;;;;;;;;;4988884;28;20065;-87
2023/11/12 07:29:58;;;;;;;12.70;6.77;;;;;;;;;;4980074;28;20034;-88
2023/11/12 07:32:25;;;;;;;13.77;6.90;;;;;;;;;;4984292;28;20023;-87
2023/11/12 07:34:51;;;;;;;11.67;7.07;;;;;;;;;;4983179;28;20105;-87
2023/11/12 07:37:17;;;;;;;12.23;7.00;;;;;;;;;;4982203;28;20134;-88
2023/11/12 07:39:43;;;;;;;10.00;6.07;;;;;;;;;;4979146;28;20034;-89
2023/11/12 07:42:09;;;;;;;9.63;5.93;;;;;;;;;;4982355;28;20035;-86
2023/11/12 07:44:35;;;;;;;14.80;7.13;;;;;;;;;;4978444;28;20037;-88
2023/11/12 07:47:04;;;;;;;11.23;6.53;;;;;;;;;;4981559;28;20038;-88
2023/11/12 07:49:30;;;;;;;11.87;7.07;;;;;;;;;;4984746;28;20458;-85
2023/11/12 07:51:56;;;;;;;14.27;6.33;;;;;;;;;;5001063;28;20030;-86
2023/11/12 07:54:23;;;;;;;12.43;7.30;;;;;;;;;;4984397;28;20030;-86
2023/11/12 07:56:49;;;;;;;11.43;7.13;;;;;;;;;;4992039;28;20090;-85
2023/11/12 07:59:15;;;;;;;14.17;8.63;;;;;;;;;;4990767;28;20026;-88
2023/11/12 08:01:41;;;;;;;14.20;9.37;;;;;;;;;;4993034;28;20089;-87
2023/11/12 08:04:11;;;;;;;15.53;8.73;;;;;;;;;;4977487;28;20098;-89
2023/11/12 08:06:37;;;;;;;13.43;8.33;;;;;;;;;;4986226;28;20031;-87
2023/11/12 08:09:03;;;;;;;12.73;8.90;;;;;;;;;;4986602;28;20026;-87
2023/11/12 08:11:29;;;;;;;16.27;9.33;;;;;;;;;;4989994;28;20065;-88
2023/11/12 08:13:55;;;;;;;16.13;9.40;;;;;;;;;;5001486;28;20519;-87
2023/11/12 08:16:21;;;;;;;15.53;9.07;;;;;;;;;;4983185;28;20045;-87
2023/11/12 08:18:47;;;;;;;15.70;9.73;;;;;;;;;;4990965;28;20035;-83
2023/11/12 08:21:13;;;;;;;20.70;10.87;;;;;;;;;;4990453;28;20034;-84
2023/11/12 08:23:39;;;;;;;17.23;9.70;;;;;;;;;;4986448;28;20038;-90
2023/11/12 08:26:05;;;;;;;14.70;9.27;;;;;;;;;;4985317;28;20034;-85
2023/11/12 08:28:34;;;;;;;20.37;9.83;;;;;;;;;;4979303;28;20478;-84
2023/11/12 08:31:00;;;;;;;17.70;10.03;;;;;;;;;;4998641;28;20034;-87
2023/11/12 08:33:26;;;;;;;13.83;9.13;;;;;;;;;;4975933;28;20283;-84
2023/11/12 08:35:52;;;;;;;16.40;10.20;;;;;;;;;;4982354;28;20031;-88
2023/11/12 08:38:18;;;;;;;19.67;9.33;;;;;;;;;;4982424;28;20034;-85
2023/11/12 08:40:45;;;;;;;15.23;9.17;;;;;;;;;;4984125;28;20090;-81
2023/11/12 08:43:14;;;;;;;17.33;10.13;;;;;;;;;;4977518;28;20027;-84
2023/11/12 08:45:58;;;;;;;14.90;8.97;;;;;;;;;;4975371;28;20035;-86
2023/11/12 08:48:31;;;;;;;16.60;8.77;;;;;;;;;;4995627;28;20603;-85
2023/11/12 08:50:58;;;;;;;16.27;10.03;;;;;;;;;;4987622;28;20082;-77
2023/11/12 08:56:00;;;;;;;18.37;11.00;;;;;;;;;;5108460;23;20035;-76
2023/11/12 08:58:28;;;;;;;16.93;10.70;;;;;;;;;;4990766;28;20511;-78
2023/11/12 09:00:57;;;;;;;20.67;10.60;;;;;;;;;;4983070;28;20045;-77
2023/11/12 09:03:23;;;;;;;16.07;10.10;;;;;;;;;;4986017;28;20020;-78
2023/11/12 09:05:49;;;;;;;15.43;9.33;;;;;;;;;;4988144;28;20031;-77
2023/11/12 09:08:23;;;;;;;18.23;9.47;;;;;;;;;;5004347;28;20030;-79
2023/11/12 09:10:51;;;;;;;14.20;9.23;;;;;;;;;;4992940;28;20015;-79
2023/11/12 09:13:19;;;;;;;19.37;8.97;;;;;;;;;;4992324;28;20027;-76
2023/11/12 09:15:46;;;;;;;15.93;8.73;;;;;;;;;;4993247;28;20054;-80
2023/11/12 09:18:12;;;;;;;17.60;9.83;;;;;;;;;;4989225;28;20045;-76
2023/11/12 09:20:43;;;;;;;13.70;8.50;;;;;;;;;;5009429;28;20029;-77
2023/11/12 09:23:09;;;;;;;15.97;9.23;;;;;;;;;;4990545;28;20044;-76
2023/11/12 09:25:38;;;;;;;14.77;9.63;;;;;;;;;;4992485;28;20031;-78
2023/11/12 09:28:06;;;;;;;17.00;8.60;;;;;;;;;;4994884;28;20058;-79
2023/11/12 09:30:34;;;;;;;11.57;7.80;;;;;;;;;;4994485;28;20007;-76
2023/11/12 09:33:00;;;;;;;17.37;8.70;;;;;;;;;;4991996;28;20139;-79
2023/11/12 09:35:26;;;;;;;13.77;8.07;;;;;;;;;;4989178;28;20027;-77
2023/11/12 09:37:52;;;;;;;13.07;8.33;;;;;;;;;;5000186;28;20031;-82
2023/11/12 09:40:18;;;;;;;13.83;8.93;;;;;;;;;;4983030;28;20030;-80
2023/11/12 09:42:48;;;;;;;11.87;8.90;;;;;;;;;;4985689;28;20066;-79
2023/11/12 09:45:14;;;;;;;14.57;8.47;;;;;;;;;;4988113;28;20380;-80
2023/11/12 09:47:48;;;;;;;12.73;8.20;;;;;;;;;;4986665;28;20031;-81
2023/11/12 09:50:14;;;;;;;15.80;8.47;;;;;;;;;;4985585;28;20109;-80
2023/11/12 09:52:41;;;;;;;16.67;8.33;;;;;;;;;;5000176;28;20055;-79
2023/11/12 09:55:07;;;;;;;18.90;8.27;;;;;;;;;;4984456;28;20074;-80
2023/11/12 09:57:34;;;;;;;17.67;9.33;;;;;;;;;;4996808;28;20038;-80
2023/11/12 10:00:00;;;;;;;17.70;8.43;;;;;;;;;;4981922;28;20057;-79
2023/11/12 10:02:27;;;;;;;15.50;7.60;;;;;;;;;;4985081;28;20125;-80
2023/11/12 10:04:57;;;;;;;14.67;7.73;;;;;;;;;;5000970;28;20058;-80
2023/11/12 10:07:25;;;;;;;18.43;8.03;;;;;;;;;;4999581;28;20031;-80
2023/11/12 10:09:54;;;;;;;12.07;6.33;;;;;;;;;;4995963;28;20030;-79
2023/11/12 10:12:22;;;;;;;14.30;6.80;;;;;;;;;;4987570;28;20018;-79
2023/11/12 10:15:02;;;;;;;11.87;6.77;;;;;;;;;;4987676;28;20054;-77
2023/11/12 10:17:30;;;;;;;12.57;6.13;;;;;;;;;;5005534;28;20015;-79
2023/11/12 10:19:59;;;;;;;15.80;6.77;;;;;;;;;;4990936;28;20019;-78
2023/11/12 10:22:39;;;;;;;14.53;6.83;;;;;;;;;;4993027;28;20023;-79
2023/11/12 10:25:12;;;;;;;13.07;6.70;;;;;;;;;;4992588;28;20030;-78
2023/11/12 10:27:56;;;;;;;15.53;6.80;;;;;;;;;;4997244;28;20041;-78
2023/11/12 10:30:26;;;;;;;9.30;6.27;;;;;;;;;;4988190;28;20012;-77
2023/11/12 10:32:52;;;;;;;10.93;6.73;;;;;;;;;;5004896;28;20070;-80
2023/11/12 10:35:30;;;;;;;12.30;5.57;;;;;;;;;;4988251;28;20077;-77
2023/11/12 10:37:59;;;;;;;8.27;5.27;;;;;;;;;;4992159;28;20018;-79
2023/11/12 10:40:29;;;;;;;11.53;5.97;;;;;;;;;;4989020;28;20042;-78
2023/11/12 10:42:58;;;;;;;10.57;6.40;;;;;;;;;;5005393;28;20022;-82
2023/11/12 10:45:30;;;;;;;11.30;5.63;;;;;;;;;;4996362;28;20054;-82
2023/11/12 10:47:59;;;;;;;8.02;5.05;;;;;;;;;;4995380;28;20035;-82
2023/11/12 10:50:25;;;;;;;14.80;6.47;;;;;;;;;;4993642;28;20027;-82
2023/11/12 10:52:57;;;;;;;11.07;5.43;;;;;;;;;;4994022;28;20027;-82
2023/11/12 10:55:23;;;;;;;9.73;5.30;;;;;;;;;;4996730;28;20053;-82
2023/11/12 10:57:59;;;;;;;8.03;5.23;;;;;;;;;;4994279;28;20098;-82
2023/11/12 11:00:25;;;;;;;7.23;4.90;;;;;;;;;;4993969;28;20066;-82
2023/11/12 11:02:51;;;;;;;8.20;5.07;;;;;;;;;;4993459;28;20045;-82
2023/11/12 11:05:18;;;;;;;9.37;4.87;;;;;;;;;;4994335;28;20022;-81
2023/11/12 11:07:48;;;;;;;6.97;4.60;;;;;;;;;;4992940;28;20023;-81
2023/11/12 11:10:16;;;;;;;10.93;6.37;;;;;;;;;;4993612;28;20023;-82
2023/11/12 11:12:43;;;;;;;13.00;8.03;;;;;;;;;;4993208;28;20026;-82
2023/11/12 11:15:30;;;;;;;15.10;6.57;;;;;;;;;;4993788;28;20103;-83
2023/11/12 11:17:57;;;;;;;8.60;5.03;;;;;;;;;;4986009;28;20034;-82
2023/11/12 11:20:24;;;;;;;9.07;5.47;;;;;;;;;;4995250;28;20087;-82
2023/11/12 11:22:50;;;;;;;8.90;5.17;;;;;;;;;;4999719;28;20042;-83
2023/11/12 11:25:25;;;;;;;9.33;4.43;;;;;;;;;;4999255;28;20022;-82
2023/11/12 11:28:13;;;;;;;8.97;4.07;;;;;;;;;;5001562;28;20074;-83
2023/11/12 11:30:59;;;;;;;8.67;5.37;;;;;;;;;;5001424;28;20018;-83
2023/11/12 11:33:25;;;;;;;4.97;3.70;;;;;;;;;;4996417;28;20026;-83
2023/11/12 11:35:54;;;;;;;7.97;3.60;;;;;;;;;;5001744;28;20042;-84
2023/11/12 11:38:25;;;;;;;7.73;4.40;;;;;;;;;;4998245;28;20027;-83
2023/11/12 11:40:56;;;;;;;9.90;4.13;;;;;;;;;;5000882;28;20043;-82
2023/11/12 11:43:24;;;;;;;9.63;3.80;;;;;;;;;;5004248;28;20038;-83
2023/11/12 11:46:16;;;;;;;7.37;3.80;;;;;;;;;;5000532;28;20034;-82
2023/11/12 11:48:43;;;;;;;;;;;;;;;;;;5002056;28;20027;-82
2023/11/12 11:51:28;;;;;;;7.83;3.77;;;;;;;;;;4994152;28;19914;-79
2023/11/12 11:54:06;;;;;;;6.20;3.20;;;;;;;;;;5024507;23;20019;-78
2023/11/12 11:56:34;;;;;;;8.43;4.43;;;;;;;;;;4985422;28;20046;-82
2023/11/12 11:59:00;;;;;;;9.13;3.53;;;;;;;;;;4977088;28;20022;-82
2023/11/12 12:01:27;;;;;;;14.37;5.07;;;;;;;;;;4978846;28;20454;-83
2023/11/12 12:04:09;;;;;;;5.23;3.23;;;;;;;;;;4981227;28;20045;-84
2023/11/12 12:06:41;;;;;;;9.63;4.35;;;;;;;;;;4975144;28;20008;-84
2023/11/12 12:09:13;;;;;;;6.53;3.90;;;;;;;;;;4971909;28;20040;-82
2023/11/12 12:11:39;;;;;;;6.75;2.67;;;;;;;;;;4968201;29;20066;-82
2023/11/12 12:14:06;;;;;;;5.93;2.70;;;;;;;;;;4977272;29;20026;-82
2023/11/12 12:16:35;;;;;;;7.03;3.10;;;;;;;;;;4990998;28;20027;-82
2023/11/12 12:19:02;;;;;;;7.07;3.30;;;;;;;;;;4977782;28;20042;-78
2023/11/12 12:21:36;;;;;;;7.33;3.40;;;;;;;;;;4973863;28;20087;-79
2023/11/12 12:24:06;;;;;;;7.30;3.40;;;;;;;;;;4969839;28;20054;-81
2023/11/12 12:26:32;;;;;;;8.30;3.53;;;;;;;;;;4975689;28;20055;-82
2023/11/12 12:28:58;;;;;;;7.53;2.97;;;;;;;;;;4975688;28;20058;-80
2023/11/12 12:31:28;;;;;;;9.80;3.57;;;;;;;;;;4970495;28;20008;-80
2023/11/12 12:34:00;;;;;;;10.03;4.03;;;;;;;;;;4973270;28;20011;-80
2023/11/12 12:36:34;;;;;;;6.68;2.97;;;;;;;;;;4970176;28;20050;-80
2023/11/12 12:39:01;;;;;;;7.73;2.80;;;;;;;;;;4976797;28;20031;-80
2023/11/12 12:41:28;;;;;;;7.67;3.13;;;;;;;;;;4969736;28;20044;-79
2023/11/12 12:43:58;;;;;;;6.77;3.33;;;;;;;;;;4988452;28;20333;-79
2023/11/12 12:46:41;;;;;;;5.47;3.20;;;;;;;;;;4972028;28;20016;-79
2023/11/12 12:49:09;;;;;;;3.90;2.30;;;;;;;;;;4989657;28;20035;-79
2023/11/12 12:51:35;;;;;;;5.47;2.60;;;;;;;;;;4972621;28;20022;-78
2023/11/12 12:54:04;;;;;;;9.97;2.60;;;;;;;;;;4986925;28;20023;-78
2023/11/12 12:56:30;;;;;;;3.37;2.13;;;;;;;;;;4971807;28;20066;-78
2023/11/12 12:58:57;;;;;;;8.13;2.80;;;;;;;;;;4972152;28;20019;-79
2023/11/12 13:01:24;;;;;;;6.27;2.77;;;;;;;;;;4987923;28;20029;-80
2023/11/12 13:03:52;;;;;;;6.60;2.53;;;;;;;;;;4985374;28;20099;-80
2023/11/12 13:06:18;;;;;;;9.90;2.97;;;;;;;;;;4969085;28;20035;-80
2023/11/12 13:08:45;;;;;;;13.37;2.53;;;;;;;;;;4971754;28;20030;-78
2023/11/12 13:11:11;;;;;;;7.10;2.73;;;;;;;;;;4973438;29;20046;-81
2023/11/12 13:13:38;;;;;;;8.07;2.50;;;;;;;;;;4972380;29;20272;-79
2023/11/12 13:16:09;;;;;;;5.43;2.50;;;;;;;;;;4982323;28;20027;-80
2023/11/12 13:18:37;;;;;;;9.70;2.50;;;;;;;;;;4968549;29;20011;-80
2023/11/12 13:21:03;;;;;;;8.23;2.57;;;;;;;;;;5104030;23;20042;-81
2023/11/12 13:23:29;;;;;;;6.03;2.37;;;;;;;;;;5010824;28;20030;-80
2023/11/12 13:25:55;;;;;;;4.27;1.80;;;;;;;;;;5002848;28;20199;-81
2023/11/12 13:28:21;;;;;;;7.50;2.13;;;;;;;;;;5012909;28;20070;-80
2023/11/12 13:30:47;;;;;;;3.33;2.03;;;;;;;;;;5000276;28;20030;-80
2023/11/12 13:33:14;;;;;;;8.57;2.70;;;;;;;;;;5008650;28;20073;-81
2023/11/12 13:35:41;;;;;;;8.37;2.37;;;;;;;;;;5009999;28;20097;-80
2023/11/12 13:38:10;;;;;;;5.83;2.50;;;;;;;;;;5007164;28;20031;-80
2023/11/12 13:40:39;;;;;;;6.83;2.60;;;;;;;;;;5013950;28;20030;-80
2023/11/12 13:43:07;;;;;;;4.17;1.87;;;;;;;;;;5012711;28;20092;-80
2023/11/12 13:45:37;;;;;;;5.17;2.37;;;;;;;;;;5013153;28;20118;-79
2023/11/12 13:48:04;;;;;;;5.83;2.30;;;;;;;;;;5005324;28;20029;-80
2023/11/12 13:50:35;;;;;;;6.60;2.20;;;;;;;;;;5007366;28;20086;-80
2023/11/12 13:53:08;;;;;;;5.30;2.20;;;;;;;;;;5009644;28;20049;-79
2023/11/12 13:55:43;;;;;;;5.40;2.20;;;;;;;;;;5011536;28;20581;-80
2023/11/12 13:58:30;;;;;;;;;;;;;;;;;;;;;
2023/11/12 14:00:56;;;;;;;8.53;2.57;;;;;;;;;;5005265;28;20105;-81
2023/11/12 14:03:32;;;;;;;6.03;2.00;;;;;;;;;;5011452;28;20035;-78
2023/11/12 14:06:12;;;;;;;5.97;2.10;;;;;;;;;;5009372;28;20033;-80
2023/11/12 14:08:38;;;;;;;5.00;2.37;;;;;;;;;;5028091;28;20054;-78
2023/11/12 14:11:07;;;;;;;6.17;2.27;;;;;;;;;;5009809;28;20032;-79
2023/11/12 14:13:33;;;;;;;8.93;2.80;;;;;;;;;;5010694;28;20046;-80
2023/11/12 14:16:39;;;;;;;9.77;2.07;;;;;;;;;;5007534;28;20635;-78
2023/11/12 14:19:11;;;;;;;9.30;2.77;;;;;;;;;;5075157;23;20051;-80
2023/11/12 14:21:51;;;;;;;7.68;2.33;;;;;;;;;;4994498;28;20081;-79
2023/11/12 14:24:36;;;;;;;4.60;1.90;;;;;;;;;;4993272;28;20039;-78
2023/11/12 14:27:11;;;;;;;4.60;2.20;;;;;;;;;;5298981;22;20005;-78
2023/11/12 14:29:44;;;;;;;5.80;1.80;;;;;;;;;;4991682;28;20058;-80
2023/11/12 14:32:16;;;;;;;10.18;1.92;;;;;;;;;;4992706;28;20487;-79
2023/11/12 14:34:46;;;;;;;6.43;2.42;;;;;;;;;;4998634;28;20031;-81
2023/11/12 14:37:20;;;;;;;6.87;2.20;;;;;;;;;;4995568;28;20027;-79
2023/11/12 14:40:14;;;;;;;4.23;1.87;;;;;;;;;;5009552;23;20053;-80
2023/11/12 14:42:43;;;;;;;7.50;2.60;;;;;;;;;;5007812;28;20038;-78
2023/11/12 14:45:12;;;;;;;5.90;2.20;;;;;;;;;;5002549;28;20038;-79
2023/11/12 14:47:41;;;;;;;7.30;3.10;;;;;;;;;;5014215;28;20093;-80